createdAt,value
2023-05-26T00:01:31.636Z,103159.50
2023-05-26T00:03:58.355Z,103167.47
2023-05-26T00:06:25.139Z,103169.25
2023-05-26T00:08:51.744Z,103165.88
2023-05-26T00:11:18.414Z,103172.16
2023-05-26T00:13:45.128Z,103180.22
2023-05-26T00:16:11.727Z,103177.63
2023-05-26T00:18:38.231Z,103171.63
2023-05-26T00:21:05.087Z,103178.66
2023-05-26T00:23:31.769Z,103178.69
2023-05-26T00:25:58.276Z,103183.13
2023-05-26T00:28:24.810Z,103182.19
2023-05-26T00:30:51.470Z,103174.38
2023-05-26T00:33:18.131Z,103177.19
2023-05-26T00:35:44.758Z,103189.53
2023-05-26T00:38:11.450Z,103184.38
2023-05-26T00:40:38.147Z,103184.38
2023-05-26T00:43:04.661Z,103186.19
2023-05-26T00:45:31.321Z,103177.53
2023-05-26T00:47:57.872Z,103175.72
2023-05-26T00:50:24.670Z,103172.44
2023-05-26T00:52:52.237Z,103176.84
2023-05-26T00:55:20.144Z,103185.69
2023-05-26T00:57:46.801Z,103185.69
2023-05-26T01:00:14.413Z,103184.97
2023-05-26T01:02:41.311Z,103173.56
2023-05-26T01:05:09.426Z,103180.56
2023-05-26T01:07:37.621Z,103184.16
2023-05-26T01:10:05.057Z,103184.31
2023-05-26T01:13:09.202Z,103185.13
2023-05-26T01:15:43.860Z,103179.09
2023-05-26T01:18:14.920Z,103180.91
2023-05-26T01:20:50.076Z,103185.38
2023-05-26T01:23:35.579Z,103186.25
2023-05-26T01:26:34.361Z,103184.63
2023-05-26T01:29:06.675Z,103191.72
2023-05-26T01:31:35.913Z,103190.84
2023-05-26T01:34:03.380Z,103190.97
2023-05-26T01:36:30.425Z,103189.31
2023-05-26T01:38:57.299Z,103194.63
2023-05-26T01:41:45.857Z,103197.31
2023-05-26T01:44:42.157Z,103198.22
2023-05-26T01:47:09.252Z,103202.69
2023-05-26T01:49:40.953Z,103206.34
2023-05-26T01:52:11.245Z,103206.31
2023-05-26T01:54:45.861Z,103202.88
2023-05-26T01:57:13.871Z,103215.28
2023-05-26T01:59:40.910Z,103217.97
2023-05-26T02:02:07.633Z,103219.75
2023-05-26T02:04:34.558Z,103223.38
2023-05-26T02:07:04.040Z,103217.28
2023-05-26T02:09:33.342Z,103220.88
2023-05-26T02:12:00.155Z,103217.31
2023-05-26T02:14:26.637Z,103213.84
2023-05-26T02:16:54.064Z,103224.44
2023-05-26T02:19:20.576Z,103219.25
2023-05-26T02:21:47.151Z,103221.06
2023-05-26T02:24:13.638Z,103228.16
2023-05-26T02:26:40.187Z,103222.03
2023-05-26T02:29:06.757Z,103233.50
2023-05-26T02:31:42.003Z,103225.63
2023-05-26T02:34:11.337Z,103225.63
2023-05-26T02:36:37.926Z,103215.94
2023-05-26T02:39:04.416Z,103221.31
2023-05-26T02:41:30.904Z,103219.63
2023-05-26T02:43:57.432Z,103223.16
2023-05-26T02:46:23.997Z,103227.59
2023-05-26T02:48:50.556Z,103229.38
2023-05-26T02:51:17.068Z,103221.50
2023-05-26T02:53:44.906Z,103225.94
2023-05-26T02:56:11.627Z,103218.09
2023-05-26T02:58:38.207Z,103218.09
2023-05-26T03:01:04.777Z,103219.78
2023-05-26T03:03:31.518Z,103216.28
2023-05-26T03:05:59.968Z,103224.31
2023-05-26T03:08:26.631Z,103223.50
2023-05-26T03:11:10.099Z,103225.28
2023-05-26T03:13:38.217Z,103225.28
2023-05-26T03:16:05.455Z,103228.00
2023-05-26T03:18:33.406Z,103221.81
2023-05-26T03:21:00.053Z,103223.59
2023-05-26T03:23:26.591Z,103237.63
2023-05-26T03:25:53.130Z,103229.66
2023-05-26T03:28:19.690Z,103220.03
2023-05-26T03:30:46.193Z,103224.50
2023-05-26T03:33:12.747Z,103232.34
2023-05-26T03:35:39.327Z,103231.41
2023-05-26T03:38:05.916Z,103232.31
2023-05-26T03:40:32.465Z,103232.28
2023-05-26T03:42:58.996Z,103236.59
2023-05-26T03:45:25.516Z,103237.44
2023-05-26T03:47:52.223Z,103233.91
2023-05-26T03:50:18.865Z,103238.25
2023-05-26T03:52:45.809Z,103239.16
2023-05-26T03:55:12.720Z,103238.22
2023-05-26T03:57:39.721Z,103235.59
2023-05-26T04:00:08.494Z,103245.22
2023-05-26T04:02:35.399Z,103240.91
2023-05-26T04:05:02.110Z,103231.28
2023-05-26T04:07:28.687Z,103233.91
2023-05-26T04:09:55.482Z,103233.88
2023-05-26T04:12:23.603Z,103240.91
2023-05-26T04:14:50.126Z,103238.28
2023-05-26T04:17:19.661Z,103245.22
2023-05-26T04:19:46.192Z,103248.59
2023-05-26T04:22:13.464Z,103249.41
2023-05-26T04:24:39.958Z,103250.28
2023-05-26T04:27:08.792Z,103255.41
2023-05-26T04:29:35.505Z,103250.78
2023-05-26T04:32:02.218Z,103257.56
2023-05-26T04:34:29.697Z,103262.72
2023-05-26T04:36:57.084Z,103245.94
2023-05-26T04:39:23.701Z,103255.31
2023-05-26T04:41:51.123Z,103244.75
2023-05-26T04:44:19.726Z,103259.47
2023-05-26T04:46:47.178Z,103260.16
2023-05-26T04:49:13.937Z,103260.00
2023-05-26T04:51:40.526Z,103267.00
2023-05-26T04:54:07.073Z,103276.72
2023-05-26T04:56:33.761Z,103277.69
2023-05-26T04:59:00.590Z,103282.84
2023-05-26T05:01:27.370Z,103279.03
2023-05-26T05:03:54.005Z,103293.00
2023-05-26T05:06:20.742Z,103289.31
2023-05-26T05:08:47.484Z,103285.44
2023-05-26T05:11:14.103Z,103301.03
2023-05-26T05:13:40.818Z,103295.53
2023-05-26T05:16:07.766Z,103298.66
2023-05-26T05:18:34.354Z,103295.78
2023-05-26T05:21:01.059Z,103293.75
2023-05-26T05:23:27.806Z,103291.78
2023-05-26T05:25:54.438Z,103302.19
2023-05-26T05:28:20.990Z,103296.47
2023-05-26T05:30:47.873Z,103296.09
2023-05-26T05:33:15.155Z,103308.22
2023-05-26T05:35:41.758Z,103301.19
2023-05-26T05:38:08.487Z,103299.13
2023-05-26T05:40:35.150Z,103311.94
2023-05-26T05:43:02.125Z,103308.47
2023-05-26T05:45:29.043Z,103301.28
2023-05-26T05:47:56.107Z,103308.94
2023-05-26T05:50:22.813Z,103304.25
2023-05-26T05:52:49.354Z,103310.44
2023-05-26T05:55:16.310Z,103307.97
2023-05-26T05:57:42.992Z,103310.63
2023-05-26T06:00:10.886Z,103311.38
2023-05-26T06:02:38.098Z,103316.56
2023-05-26T06:05:05.151Z,103312.88
2023-05-26T06:07:31.696Z,103308.31
2023-05-26T06:09:58.355Z,103317.78
2023-05-26T06:12:25.280Z,103310.03
2023-05-26T06:14:52.064Z,103310.03
2023-05-26T06:17:18.577Z,103312.59
2023-05-26T06:19:45.085Z,103308.16
2023-05-26T06:22:11.620Z,103315.91
2023-05-26T06:24:38.241Z,103319.44
2023-05-26T06:27:05.235Z,103323.63
2023-05-26T06:29:31.776Z,103325.19
2023-05-26T06:31:58.313Z,103324.00
2023-05-26T06:34:24.943Z,103318.78
2023-05-26T06:36:52.217Z,103320.34
2023-05-26T06:39:18.784Z,103328.91
2023-05-26T06:41:45.379Z,103326.09
2023-05-26T06:44:11.944Z,103329.91
2023-05-26T06:46:38.480Z,103331.34
2023-05-26T06:49:05.071Z,103331.72
2023-05-26T06:51:31.827Z,103337.50
2023-05-26T06:53:58.547Z,103338.13
2023-05-26T06:56:28.603Z,103329.19
2023-05-26T06:58:55.209Z,103334.34
2023-05-26T07:01:21.774Z,103339.13
2023-05-26T07:03:48.803Z,103333.31
2023-05-26T07:06:15.385Z,103339.56
2023-05-26T07:08:41.948Z,103334.81
2023-05-26T07:11:11.487Z,103340.50
2023-05-26T07:13:37.964Z,103333.44
2023-05-26T07:16:04.706Z,103329.41
2023-05-26T07:18:31.245Z,103330.28
2023-05-26T07:20:57.816Z,103328.91
2023-05-26T07:23:24.502Z,103336.84
2023-05-26T07:25:51.195Z,103336.47
2023-05-26T07:28:17.711Z,103337.22
2023-05-26T07:30:44.434Z,103331.56
2023-05-26T07:33:12.377Z,103341.66
2023-05-26T07:35:38.983Z,103319.69
2023-05-26T07:38:05.778Z,103301.91
2023-05-26T07:40:35.903Z,103311.69
2023-05-26T07:43:03.617Z,103305.44
2023-05-26T07:45:30.259Z,103303.63
2023-05-26T07:47:56.837Z,103317.19
2023-05-26T07:50:23.419Z,103303.50
2023-05-26T07:52:50.150Z,103304.22
2023-05-26T07:55:16.737Z,103299.50
2023-05-26T07:57:43.417Z,103295.31
2023-05-26T08:00:11.918Z,103295.00
2023-05-26T08:02:41.455Z,103300.03
2023-05-26T08:05:08.575Z,103298.97
2023-05-26T08:07:35.309Z,103293.69
2023-05-26T08:10:04.390Z,103313.00
2023-05-26T08:12:31.017Z,103286.19
2023-05-26T08:14:58.306Z,103287.88
2023-05-26T08:17:25.350Z,103291.25
2023-05-26T08:19:52.290Z,103299.75
2023-05-26T08:22:18.850Z,103285.91
2023-05-26T08:24:45.444Z,103282.19
2023-05-26T08:27:11.971Z,103277.63
2023-05-26T08:29:38.522Z,103285.63
2023-05-26T08:32:05.609Z,103279.47
2023-05-26T08:34:32.188Z,103288.47
2023-05-26T08:36:58.768Z,103297.31
2023-05-26T08:39:25.416Z,103296.16
2023-05-26T08:42:01.076Z,103292.94
2023-05-26T08:44:27.893Z,103291.16
2023-05-26T08:46:56.893Z,103298.50
2023-05-26T08:49:25.253Z,103297.50
2023-05-26T08:52:07.620Z,103290.13
2023-05-26T08:54:34.353Z,103298.16
2023-05-26T08:57:04.196Z,103299.81
2023-05-26T08:59:32.754Z,103292.16
2023-05-26T09:02:00.179Z,103300.56
2023-05-26T09:04:27.257Z,103294.59
2023-05-26T09:07:08.660Z,103295.31
2023-05-26T09:09:41.680Z,103295.22
2023-05-26T09:12:12.791Z,103285.59
2023-05-26T09:14:41.195Z,103294.16
2023-05-26T09:17:07.847Z,103292.31
2023-05-26T09:19:34.737Z,103283.50
2023-05-26T09:22:10.044Z,103289.03
2023-05-26T09:24:50.632Z,103281.59
2023-05-26T09:27:18.731Z,103288.59
2023-05-26T09:29:55.806Z,103291.81
2023-05-26T09:32:27.382Z,103280.44
2023-05-26T09:34:59.896Z,103285.03
2023-05-26T09:37:29.350Z,103288.75
2023-05-26T09:40:06.953Z,103287.16
2023-05-26T09:42:33.565Z,103278.84
2023-05-26T09:45:02.844Z,103283.53
2023-05-26T09:47:34.348Z,103275.97
2023-05-26T09:50:06.084Z,103284.59
2023-05-26T09:52:34.366Z,103273.00
2023-05-26T09:55:01.294Z,103284.47
2023-05-26T09:57:29.850Z,103285.31
2023-05-26T09:59:58.285Z,103275.72
2023-05-26T10:02:27.721Z,103270.47
2023-05-26T10:04:54.726Z,103279.41
2023-05-26T10:07:22.385Z,103280.78
2023-05-26T10:09:54.387Z,103271.34
2023-05-26T10:12:31.535Z,103273.56
2023-05-26T10:14:58.697Z,103272.44
2023-05-26T10:17:30.061Z,103280.06
2023-05-26T10:19:59.485Z,103283.34
2023-05-26T10:22:29.579Z,103270.72
2023-05-26T10:25:04.257Z,103274.59
2023-05-26T10:27:51.988Z,103266.53
2023-05-26T10:30:21.379Z,103267.41
2023-05-26T10:32:49.070Z,103273.13
2023-05-26T10:35:32.722Z,103267.00
2023-05-26T10:38:02.257Z,103263.81
2023-05-26T10:40:43.959Z,103268.84
2023-05-26T10:43:23.497Z,103264.94
2023-05-26T10:46:00.266Z,103255.97
2023-05-26T10:48:36.376Z,103250.19
2023-05-26T10:51:03.017Z,103253.69
2023-05-26T10:53:40.503Z,103260.34
2023-05-26T10:56:09.914Z,103244.44
2023-05-26T10:58:48.519Z,103254.88
2023-05-26T11:01:36.405Z,103249.81
2023-05-26T11:04:06.066Z,103256.47
2023-05-26T11:06:46.268Z,103241.97
2023-05-26T11:09:13.058Z,103238.03
2023-05-26T11:11:51.346Z,103237.53
2023-05-26T11:14:42.659Z,103245.88
2023-05-26T11:17:09.235Z,103244.28
2023-05-26T11:19:38.284Z,103228.00
2023-05-26T11:22:08.165Z,103241.63
2023-05-26T11:24:35.151Z,103234.50
2023-05-26T11:27:06.936Z,103238.06
2023-05-26T11:29:33.933Z,103243.94
2023-05-26T11:32:00.794Z,103229.69
2023-05-26T11:34:27.668Z,103234.19
2023-05-26T11:36:55.103Z,103223.69
2023-05-26T11:39:23.062Z,103231.44
2023-05-26T11:41:50.334Z,103227.78
2023-05-26T11:44:17.166Z,103227.38
2023-05-26T11:46:45.365Z,103231.97
2023-05-26T11:49:21.305Z,103224.25
2023-05-26T11:51:52.132Z,103226.56
2023-05-26T11:54:20.351Z,103229.94
2023-05-26T11:56:47.866Z,103225.97
2023-05-26T11:59:21.469Z,103217.09
2023-05-26T12:01:49.690Z,103239.28
2023-05-26T12:04:27.808Z,103230.09
2023-05-26T12:06:55.432Z,103239.50
2023-05-26T12:09:24.032Z,103225.75
2023-05-26T12:11:54.466Z,103231.41
2023-05-26T12:14:23.712Z,103228.66
2023-05-26T12:16:52.889Z,103232.22
2023-05-26T12:19:21.774Z,103217.38
2023-05-26T12:22:01.195Z,103219.16
2023-05-26T12:24:36.747Z,103220.13
2023-05-26T12:27:21.514Z,103217.28
2023-05-26T12:29:48.164Z,103212.28
2023-05-26T12:32:14.745Z,103216.16
2023-05-26T12:34:42.776Z,103209.78
2023-05-26T12:37:09.350Z,103204.09
2023-05-26T12:39:36.932Z,103215.38
2023-05-26T12:42:03.952Z,103216.75
2023-05-26T12:44:30.655Z,103213.00
2023-05-26T12:46:57.343Z,103203.31
2023-05-26T12:49:24.012Z,103207.06
2023-05-26T12:51:50.517Z,103204.69
2023-05-26T12:54:17.122Z,103191.59
2023-05-26T12:56:43.745Z,103200.97
2023-05-26T12:59:19.111Z,103205.34
2023-05-26T13:01:47.837Z,103198.72
2023-05-26T13:04:14.978Z,103195.84
2023-05-26T13:06:41.715Z,103195.03
2023-05-26T13:09:08.494Z,103197.53
2023-05-26T13:11:35.183Z,103196.59
2023-05-26T13:14:01.723Z,103197.09
2023-05-26T13:16:28.306Z,103202.78
2023-05-26T13:18:54.939Z,103196.22
2023-05-26T13:21:21.684Z,103181.78
2023-05-26T13:23:52.544Z,103187.44
2023-05-26T13:26:19.677Z,103192.25
2023-05-26T13:28:46.321Z,103185.63
2023-05-26T13:31:12.968Z,103190.06
2023-05-26T13:33:39.558Z,103186.28
2023-05-26T13:36:06.477Z,103194.81
2023-05-26T13:38:32.963Z,103180.47
2023-05-26T13:41:00.150Z,103182.66
2023-05-26T13:43:27.440Z,103176.66
2023-05-26T13:45:54.824Z,103167.41
2023-05-26T13:48:23.489Z,103177.81
2023-05-26T13:50:50.101Z,103161.41
2023-05-26T13:53:16.760Z,103165.66
2023-05-26T13:55:45.254Z,103164.81
2023-05-26T13:58:11.895Z,103165.44
2023-05-26T14:00:38.424Z,103166.50
2023-05-26T14:03:05.736Z,103156.28
2023-05-26T14:05:32.759Z,103163.53
2023-05-26T14:07:59.417Z,103173.41
2023-05-26T14:10:28.223Z,103155.88
2023-05-26T14:12:54.873Z,103163.00
2023-05-26T14:15:21.409Z,103159.16
2023-05-26T14:17:56.379Z,103162.91
2023-05-26T14:21:50.212Z,103163.09
2023-05-26T14:23:23.691Z,103171.81
2023-05-26T14:25:51.203Z,103173.19
2023-05-26T14:28:17.965Z,103172.00
2023-05-26T14:30:44.524Z,103160.56
2023-05-26T14:33:11.233Z,103155.50
2023-05-26T14:35:37.869Z,103161.88
2023-05-26T14:38:04.532Z,103151.50
2023-05-26T14:40:32.618Z,103150.09
2023-05-26T14:42:59.369Z,103149.25
2023-05-26T14:45:26.405Z,103157.88
2023-05-26T14:47:53.697Z,103153.50
2023-05-26T14:50:22.801Z,103163.25
2023-05-26T14:52:50.148Z,103156.47
2023-05-26T14:55:18.413Z,103153.59
2023-05-26T14:57:45.241Z,103149.66
2023-05-26T15:00:13.126Z,103160.31
2023-05-26T15:02:40.592Z,103151.25
2023-05-26T15:05:09.199Z,103157.22
2023-05-26T15:07:35.914Z,103156.72
2023-05-26T15:10:03.107Z,103155.06
2023-05-26T15:12:29.768Z,103146.50
2023-05-26T15:14:57.410Z,103152.84
2023-05-26T15:17:23.931Z,103151.47
2023-05-26T15:19:50.867Z,103149.97
2023-05-26T15:22:17.803Z,103143.13
2023-05-26T15:24:44.365Z,103154.16
2023-05-26T15:27:12.509Z,103139.94
2023-05-26T15:29:42.562Z,103140.66
2023-05-26T15:32:09.277Z,103148.88
2023-05-26T15:34:35.897Z,103149.97
2023-05-26T15:37:02.483Z,103151.34
2023-05-26T15:39:29.268Z,103151.22
2023-05-26T15:41:55.980Z,103145.69
2023-05-26T15:44:22.717Z,103142.16
2023-05-26T15:46:49.262Z,103137.75
2023-05-26T15:49:16.513Z,103143.16
2023-05-26T15:51:43.049Z,103136.25
2023-05-26T15:54:09.555Z,103151.22
2023-05-26T15:56:36.265Z,103157.59
2023-05-26T15:59:02.792Z,103143.38
2023-05-26T16:01:29.693Z,103146.44
2023-05-26T16:03:56.450Z,103156.59
2023-05-26T16:06:23.689Z,103151.78
2023-05-26T16:08:50.429Z,103147.78
2023-05-26T16:11:17.400Z,103135.13
2023-05-26T16:13:44.256Z,103145.28
2023-05-26T16:16:10.958Z,103144.41
2023-05-26T16:18:37.751Z,103145.63
2023-05-26T16:21:05.587Z,103150.19
2023-05-26T16:23:32.211Z,103150.06
2023-05-26T16:26:00.177Z,103145.53
2023-05-26T16:28:27.255Z,103139.88
2023-05-26T16:30:54.192Z,103148.66
2023-05-26T16:33:20.915Z,103155.03
2023-05-26T16:35:50.741Z,103141.06
2023-05-26T16:38:18.366Z,103139.03
2023-05-26T16:40:44.939Z,103141.19
2023-05-26T16:43:17.144Z,103145.53
2023-05-26T16:45:46.683Z,103136.66
2023-05-26T16:48:13.276Z,103136.06
2023-05-26T16:50:40.006Z,103135.59
2023-05-26T16:53:10.881Z,103144.88
2023-05-26T16:55:38.263Z,103134.81
2023-05-26T16:58:05.891Z,103138.19
2023-05-26T17:00:32.831Z,103130.22
2023-05-26T17:02:59.640Z,103131.28
2023-05-26T17:05:26.380Z,103138.88
2023-05-26T17:07:53.072Z,103141.44
2023-05-26T17:10:19.786Z,103138.75
2023-05-26T17:12:46.333Z,103147.28
2023-05-26T17:15:12.866Z,103140.81
2023-05-26T17:17:39.427Z,103151.97
2023-05-26T17:20:06.509Z,103150.34
2023-05-26T17:22:33.154Z,103147.25
2023-05-26T17:24:59.699Z,103148.03
2023-05-26T17:27:26.528Z,103155.50
2023-05-26T17:29:53.048Z,103151.09
2023-05-26T17:32:19.714Z,103145.69
2023-05-26T17:34:46.309Z,103162.59
2023-05-26T17:37:14.768Z,103155.88
2023-05-26T17:39:42.083Z,103163.94
2023-05-26T17:42:09.220Z,103164.31
2023-05-26T17:44:36.303Z,103161.69
2023-05-26T17:47:04.104Z,103161.47
2023-05-26T17:49:30.725Z,103160.81
2023-05-26T17:51:57.209Z,103152.78
2023-05-26T17:54:29.074Z,103154.56
2023-05-26T17:56:57.254Z,103169.03
2023-05-26T17:59:24.954Z,103165.31
2023-05-26T18:01:51.898Z,103169.53
2023-05-26T18:04:18.634Z,103166.28
2023-05-26T18:06:45.381Z,103171.19
2023-05-26T18:09:11.997Z,103173.66
2023-05-26T18:11:38.571Z,103174.31
2023-05-26T18:14:05.149Z,103175.22
2023-05-26T18:16:32.218Z,103181.91
2023-05-26T18:18:59.911Z,103174.63
2023-05-26T18:21:27.133Z,103182.09
2023-05-26T18:23:53.954Z,103190.88
2023-05-26T18:26:23.046Z,103183.78
2023-05-26T18:28:50.457Z,103176.91
2023-05-26T18:31:16.999Z,103186.38
2023-05-26T18:33:43.557Z,103184.00
2023-05-26T18:36:10.295Z,103176.31
2023-05-26T18:38:37.066Z,103180.84
2023-05-26T18:41:03.714Z,103193.75
2023-05-26T18:43:30.542Z,103179.53
2023-05-26T18:45:57.158Z,103182.13
2023-05-26T18:48:23.851Z,103186.09
2023-05-26T18:50:50.730Z,103183.75
2023-05-26T18:53:17.281Z,103176.06
2023-05-26T18:55:44.045Z,103177.25
2023-05-26T18:58:10.759Z,103168.25
2023-05-26T19:00:39.918Z,103181.03
2023-05-26T19:03:07.338Z,103184.81
2023-05-26T19:05:34.160Z,103181.78
2023-05-26T19:08:00.824Z,103182.16
2023-05-26T19:10:27.446Z,103181.63
2023-05-26T19:12:54.009Z,103179.88
2023-05-26T19:15:20.585Z,103187.09
2023-05-26T19:17:47.226Z,103185.69
2023-05-26T19:20:14.033Z,103182.47
2023-05-26T19:22:41.512Z,103186.25
2023-05-26T19:25:08.653Z,103181.44
2023-05-26T19:27:35.229Z,103188.97
2023-05-26T19:30:01.933Z,103185.81
2023-05-26T19:32:29.536Z,103187.84
2023-05-26T19:34:56.057Z,103193.50
2023-05-26T19:37:22.603Z,103190.19
2023-05-26T19:39:49.098Z,103183.59
2023-05-26T19:42:16.921Z,103189.34
2023-05-26T19:44:43.596Z,103191.41
2023-05-26T19:47:10.197Z,103186.59
2023-05-26T19:49:36.885Z,103190.34
2023-05-26T19:52:03.703Z,103187.97
2023-05-26T19:54:30.423Z,103193.53
2023-05-26T19:56:57.239Z,103196.47
2023-05-26T19:59:24.046Z,103192.44
2023-05-26T20:01:50.592Z,103192.50
2023-05-26T20:04:17.186Z,103187.69
2023-05-26T20:06:44.225Z,103201.94
2023-05-26T20:09:11.183Z,103203.09
2023-05-26T20:11:37.718Z,103200.50
2023-05-26T20:14:05.063Z,103200.03
2023-05-26T20:16:32.498Z,103204.78
2023-05-26T20:19:00.038Z,103195.41
2023-05-26T20:21:26.677Z,103187.69
2023-05-26T20:23:53.379Z,103197.44
2023-05-26T20:26:20.015Z,103192.47
2023-05-26T20:28:49.050Z,103197.13
2023-05-26T20:31:18.615Z,103195.59
2023-05-26T20:33:46.541Z,103198.47
2023-05-26T20:36:14.089Z,103208.31
2023-05-26T20:38:41.546Z,103209.38
2023-05-26T20:41:08.835Z,103208.63
2023-05-26T20:43:35.482Z,103208.91
2023-05-26T20:46:02.282Z,103207.28
2023-05-26T20:48:28.885Z,103210.91
2023-05-26T20:50:55.674Z,103219.09
2023-05-26T20:53:22.614Z,103216.75
2023-05-26T20:55:49.178Z,103219.59
2023-05-26T20:58:15.957Z,103214.53
2023-05-26T21:00:42.463Z,103219.97
2023-05-26T21:03:09.113Z,103219.34
2023-05-26T21:05:36.087Z,103215.97
2023-05-26T21:08:02.696Z,103216.13
2023-05-26T21:10:29.171Z,103210.09
2023-05-26T21:12:56.240Z,103213.81
2023-05-26T21:15:22.998Z,103217.50
2023-05-26T21:17:49.716Z,103209.72
2023-05-26T21:20:16.560Z,103210.78
2023-05-26T21:22:43.113Z,103207.38
2023-05-26T21:25:09.930Z,103207.47
2023-05-26T21:27:36.569Z,103199.00
2023-05-26T21:30:04.017Z,103211.44
2023-05-26T21:32:30.667Z,103206.28
2023-05-26T21:34:57.203Z,103198.38
2023-05-26T21:37:23.713Z,103198.53
2023-05-26T21:39:50.233Z,103197.81
2023-05-26T21:42:16.720Z,103194.47
2023-05-26T21:44:43.252Z,103186.72
2023-05-26T21:47:09.747Z,103195.69
2023-05-26T21:49:36.293Z,103184.44
2023-05-26T21:52:03.686Z,103197.81
2023-05-26T21:54:30.426Z,103179.44
2023-05-26T21:56:56.983Z,103188.44
2023-05-26T21:59:23.522Z,103186.81
2023-05-26T22:01:50.214Z,103194.94
2023-05-26T22:04:16.864Z,103190.75
2023-05-26T22:06:43.451Z,103186.41
2023-05-26T22:09:09.973Z,103203.31
2023-05-26T22:11:36.491Z,103193.78
2023-05-26T22:14:10.222Z,103194.88
2023-05-26T22:16:44.152Z,103197.63
2023-05-26T22:19:11.429Z,103197.69
2023-05-26T22:21:37.957Z,103197.78
2023-05-26T22:24:04.715Z,103199.75
2023-05-26T22:26:31.289Z,103193.69
2023-05-26T22:28:57.903Z,103203.47
2023-05-26T22:31:24.911Z,103200.94
2023-05-26T22:33:51.508Z,103204.50
2023-05-26T22:36:17.986Z,103209.16
2023-05-26T22:38:44.504Z,103205.69
2023-05-26T22:41:11.054Z,103203.22
2023-05-26T22:43:37.535Z,103206.88
2023-05-26T22:46:04.170Z,103214.94
2023-05-26T22:48:30.938Z,103197.63
2023-05-26T22:50:58.033Z,103204.75
2023-05-26T22:53:24.660Z,103206.53
2023-05-26T22:56:00.363Z,103203.13
2023-05-26T22:58:35.709Z,103200.69
2023-05-26T23:01:02.864Z,103199.03
2023-05-26T23:03:29.492Z,103210.72
2023-05-26T23:05:56.771Z,103209.94
2023-05-26T23:08:23.532Z,103200.47
2023-05-26T23:10:50.221Z,103201.47
2023-05-26T23:13:21.581Z,103198.97
2023-05-26T23:15:48.189Z,103197.34
2023-05-26T23:18:14.714Z,103196.56
2023-05-26T23:20:41.292Z,103198.38
2023-05-26T23:23:07.815Z,103187.00
2023-05-26T23:25:34.461Z,103196.78
2023-05-26T23:28:00.984Z,103193.38
2023-05-26T23:30:28.034Z,103197.03
2023-05-26T23:32:54.601Z,103197.19
2023-05-26T23:35:21.234Z,103192.78
2023-05-26T23:37:47.730Z,103189.47
2023-05-26T23:40:14.220Z,103179.88
2023-05-26T23:42:40.793Z,103188.72
2023-05-26T23:45:08.225Z,103178.34
2023-05-26T23:47:34.918Z,103181.88
2023-05-26T23:50:01.916Z,103177.59
2023-05-26T23:52:28.512Z,103182.16
2023-05-26T23:54:55.092Z,103175.09
2023-05-26T23:57:21.600Z,103178.75
2023-05-26T23:59:48.065Z,103172.72
